Time;durP1;ratioP1;P1;durP2;ratioP2;P2;SDS_P1;SDS_P2;PMS_P1;PMS_P2;Temp;Humidity;BMP_temperature;BMP_pressure;BME280_temperature;BME280_humidity;BME280_pressure;Samples;Min_cycle;Max_cycle;Signal;HPM_P1;HPM_P2
2021/09/09 00:02:24;;;;;;;16.63;13.50;;;22.10;60.20;;;;;;4979068;28;20739;-85
2021/09/09 00:04:50;;;;;;;18.73;13.57;;;22.10;60.10;;;;;;4993120;28;20691;-86
2021/09/09 00:07:15;;;;;;;16.47;13.70;;;22.00;60.10;;;;;;4994235;28;20266;-87
2021/09/09 00:09:41;;;;;;;18.20;14.63;;;22.10;60.30;;;;;;4993076;28;20211;-86
2021/09/09 00:12:07;;;;;;;19.33;14.20;;;22.00;60.30;;;;;;4975452;28;20444;-86
2021/09/09 00:14:33;;;;;;;19.47;14.63;;;22.00;60.10;;;;;;4975773;28;20184;-84
2021/09/09 00:16:59;;;;;;;23.17;13.93;;;22.00;60.10;;;;;;4975256;28;20434;-86
2021/09/09 00:19:25;;;;;;;17.27;13.37;;;21.90;60.30;;;;;;4966925;28;20187;-85
2021/09/09 00:21:50;;;;;;;24.23;14.47;;;21.90;60.40;;;;;;4980922;28;20491;-86
2021/09/09 00:24:16;;;;;;;19.60;13.17;;;21.90;60.40;;;;;;4979967;28;20478;-86
2021/09/09 00:26:42;;;;;;;19.53;13.87;;;21.90;60.40;;;;;;4966230;28;20187;-86
2021/09/09 00:29:08;;;;;;;23.20;14.57;;;21.90;60.40;;;;;;4973119;28;20204;-86
2021/09/09 00:31:33;;;;;;;15.83;13.17;;;21.90;60.50;;;;;;4961174;28;20187;-86
2021/09/09 00:33:59;;;;;;;18.03;13.27;;;21.80;60.50;;;;;;4944119;28;20287;-87
2021/09/09 00:36:25;;;;;;;20.10;12.97;;;21.80;60.50;;;;;;4959947;28;20274;-87
2021/09/09 00:38:51;;;;;;;18.07;13.10;;;21.70;60.50;;;;;;4976970;28;20214;-87
2021/09/09 00:41:16;;;;;;;18.73;12.50;;;21.70;60.70;;;;;;4960305;28;20795;-85
2021/09/09 00:43:42;;;;;;;19.73;14.73;;;21.70;60.70;;;;;;4961796;28;20199;-85
2021/09/09 00:46:08;;;;;;;18.53;14.20;;;21.70;60.70;;;;;;4976421;28;20312;-86
2021/09/09 00:48:34;;;;;;;17.50;13.60;;;21.70;60.60;;;;;;4960185;28;20188;-85
2021/09/09 00:50:59;;;;;;;20.20;13.57;;;21.70;60.70;;;;;;4944199;28;20188;-86
2021/09/09 00:53:25;;;;;;;18.17;14.40;;;21.70;60.80;;;;;;4977286;28;20443;-85
2021/09/09 00:55:52;;;;;;;19.67;14.30;;;21.60;60.80;;;;;;4993468;28;20203;-86
2021/09/09 00:58:18;;;;;;;14.73;13.00;;;21.60;60.90;;;;;;4986526;28;20419;-85
2021/09/09 01:00:44;;;;;;;17.30;13.32;;;21.60;61.10;;;;;;4979210;28;20805;-85
2021/09/09 01:03:10;;;;;;;27.90;15.97;;;21.60;61.10;;;;;;4976376;28;20223;-86
2021/09/09 01:05:37;;;;;;;25.47;14.67;;;21.70;60.90;;;;;;4958707;28;20419;-85
2021/09/09 01:08:04;;;;;;;27.33;14.10;;;21.60;60.80;;;;;;4977407;28;20415;-86
2021/09/09 01:10:30;;;;;;;18.50;13.17;;;21.60;60.70;;;;;;4959587;28;20490;-86
2021/09/09 01:12:56;;;;;;;19.37;13.50;;;21.80;60.60;;;;;;4960117;28;20462;-86
2021/09/09 01:15:22;;;;;;;18.63;14.00;;;21.70;60.30;;;;;;4961182;28;20419;-86
2021/09/09 01:17:48;;;;;;;17.57;13.97;;;21.70;60.30;;;;;;4961027;28;20228;-86
2021/09/09 01:20:15;;;;;;;24.13;16.00;;;21.70;60.50;;;;;;4978665;28;20411;-86
2021/09/09 01:22:42;;;;;;;24.10;15.57;;;21.60;60.60;;;;;;4981767;28;20494;-86
2021/09/09 01:25:09;;;;;;;17.60;13.83;;;21.60;60.70;;;;;;5000277;28;20433;-87
2021/09/09 01:27:35;;;;;;;20.45;14.38;;;21.60;60.80;;;;;;4993791;28;20425;-86
2021/09/09 01:30:01;;;;;;;27.33;15.30;;;21.50;61.10;;;;;;5003064;28;20222;-86
2021/09/09 01:32:27;;;;;;;20.20;14.00;;;21.50;61.30;;;;;;4978998;28;20529;-86
2021/09/09 01:34:53;;;;;;;19.50;13.80;;;21.50;61.40;;;;;;4998017;28;20513;-87
2021/09/09 01:37:18;;;;;;;21.17;14.40;;;21.60;61.40;;;;;;4980220;28;20178;-86
2021/09/09 01:39:46;;;;;;;20.37;15.70;;;21.50;61.50;;;;;;4997556;28;20183;-86
2021/09/09 01:42:12;;;;;;;22.10;15.07;;;21.50;61.50;;;;;;4978984;28;20334;-87
2021/09/09 01:44:38;;;;;;;19.53;14.63;;;21.50;61.50;;;;;;4980160;28;20183;-87
2021/09/09 01:47:04;;;;;;;18.70;14.17;;;21.40;61.50;;;;;;4980959;28;20426;-87
2021/09/09 01:49:30;;;;;;;19.90;14.90;;;21.40;61.70;;;;;;4999317;28;20845;-86
2021/09/09 01:51:56;;;;;;;21.23;14.70;;;21.50;61.70;;;;;;4997653;28;20423;-86
2021/09/09 01:54:23;;;;;;;21.50;15.47;;;21.50;61.20;;;;;;4978320;28;20182;-86
2021/09/09 01:56:50;;;;;;;17.63;13.33;;;21.50;61.30;;;;;;4978546;28;20505;-86
2021/09/09 01:59:16;;;;;;;21.58;14.10;;;21.30;61.40;;;;;;4978682;28;20784;-85
2021/09/09 02:01:41;;;;;;;20.33;14.40;;;21.20;61.70;;;;;;4984917;28;20179;-85
2021/09/09 02:04:07;;;;;;;21.00;15.10;;;21.20;61.80;;;;;;5008124;28;20438;-84
2021/09/09 02:06:34;;;;;;;21.73;14.83;;;21.30;61.70;;;;;;4993640;28;20438;-83
2021/09/09 02:09:00;;;;;;;22.45;14.13;;;21.30;61.70;;;;;;4999731;28;20461;-84
2021/09/09 02:11:26;;;;;;;21.13;14.83;;;21.30;61.70;;;;;;5016885;28;20168;-82
2021/09/09 02:13:52;;;;;;;21.47;15.53;;;21.30;61.70;;;;;;4999345;28;20458;-84
2021/09/09 02:16:18;;;;;;;18.95;15.00;;;21.30;61.70;;;;;;4987566;28;20172;-84
2021/09/09 02:18:44;;;;;;;21.13;15.40;;;21.30;61.60;;;;;;4980554;28;20180;-83
2021/09/09 02:21:09;;;;;;;18.77;15.03;;;21.20;61.70;;;;;;4980328;28;20243;-83
2021/09/09 02:23:35;;;;;;;22.27;15.00;;;21.20;62.00;;;;;;4979950;28;20198;-83
2021/09/09 02:26:01;;;;;;;25.37;16.20;;;21.30;62.10;;;;;;4999157;28;20279;-85
2021/09/09 02:28:26;;;;;;;25.80;15.90;;;21.20;61.80;;;;;;4999733;28;20186;-84
2021/09/09 02:30:52;;;;;;;18.23;14.20;;;21.20;61.70;;;;;;4999040;28;20207;-84
2021/09/09 02:33:18;;;;;;;22.67;15.10;;;21.20;61.90;;;;;;5014446;28;20221;-84
2021/09/09 02:35:43;;;;;;;18.40;14.03;;;21.20;62.10;;;;;;4986323;28;20179;-86
2021/09/09 02:38:09;;;;;;;19.80;14.60;;;21.20;62.00;;;;;;4983957;28;20258;-85
2021/09/09 02:40:35;;;;;;;18.47;13.87;;;21.20;61.90;;;;;;4984795;28;20229;-86
2021/09/09 02:43:01;;;;;;;22.60;14.60;;;21.10;62.10;;;;;;5002476;28;20234;-87
2021/09/09 02:45:27;;;;;;;20.37;15.30;;;21.00;62.20;;;;;;4987537;28;20784;-87
2021/09/09 02:47:53;;;;;;;21.00;14.80;;;21.00;62.20;;;;;;4987700;28;20543;-86
2021/09/09 02:50:19;;;;;;;21.83;14.97;;;21.00;62.40;;;;;;4985928;28;20461;-86
2021/09/09 02:52:44;;;;;;;21.47;15.10;;;20.90;62.60;;;;;;4985749;28;20482;-85
2021/09/09 02:55:13;;;;;;;19.83;15.10;;;20.80;63.00;;;;;;4992475;28;20171;-84
2021/09/09 02:57:39;;;;;;;19.92;14.93;;;20.80;63.00;;;;;;4982534;28;20183;-87
2021/09/09 03:00:06;;;;;;;16.10;13.73;;;20.90;62.90;;;;;;4997267;28;20179;-87
2021/09/09 03:02:32;;;;;;;18.10;13.05;;;20.90;62.80;;;;;;4978995;28;20461;-87
2021/09/09 03:04:58;;;;;;;28.77;17.00;;;20.90;62.80;;;;;;4982829;28;20176;-88
2021/09/09 03:07:24;;;;;;;20.40;14.97;;;20.90;62.70;;;;;;4999209;28;20183;-87
2021/09/09 03:09:49;;;;;;;18.17;14.37;;;20.80;62.90;;;;;;4997129;28;20241;-86
2021/09/09 03:12:15;;;;;;;20.27;14.53;;;20.80;63.20;;;;;;4979297;28;20443;-87
2021/09/09 03:14:41;;;;;;;22.70;16.10;;;20.80;63.30;;;;;;4979377;28;20415;-87
2021/09/09 03:17:07;;;;;;;18.00;14.63;;;20.80;63.10;;;;;;4979456;28;20417;-87
2021/09/09 03:19:33;;;;;;;23.40;15.90;;;20.80;63.10;;;;;;4979230;28;20661;-86
2021/09/09 03:21:59;;;;;;;22.25;15.57;;;20.80;63.30;;;;;;4996369;28;20237;-87
2021/09/09 03:24:24;;;;;;;19.23;14.93;;;20.70;63.50;;;;;;4979118;28;20186;-87
2021/09/09 03:26:50;;;;;;;22.20;15.70;;;20.80;63.60;;;;;;4978896;28;20620;-87
2021/09/09 03:29:17;;;;;;;19.53;15.73;;;20.80;63.30;;;;;;4980560;28;20206;-85
2021/09/09 03:31:42;;;;;;;26.13;15.50;;;20.60;63.30;;;;;;4980077;28;20646;-87
2021/09/09 03:34:08;;;;;;;20.50;15.30;;;20.80;63.50;;;;;;4979055;28;20281;-86
2021/09/09 03:36:34;;;;;;;21.57;15.90;;;20.70;63.30;;;;;;4979928;28;20237;-86
2021/09/09 03:39:00;;;;;;;18.47;15.20;;;20.70;63.50;;;;;;4978838;28;20190;-86
2021/09/09 03:41:25;;;;;;;21.63;14.37;;;20.70;63.30;;;;;;4979386;28;20183;-87
2021/09/09 03:43:51;;;;;;;17.90;15.27;;;20.80;63.20;;;;;;4995984;28;20211;-86
2021/09/09 03:46:17;;;;;;;23.17;15.50;;;20.80;63.30;;;;;;4977748;28;20187;-86
2021/09/09 03:48:43;;;;;;;19.97;14.73;;;20.70;63.40;;;;;;4978601;28;20190;-87
2021/09/09 03:51:09;;;;;;;21.88;14.93;;;20.80;63.20;;;;;;4978831;28;20511;-86
2021/09/09 03:53:34;;;;;;;24.30;15.70;;;20.80;63.10;;;;;;4995837;28;20191;-86
2021/09/09 03:56:01;;;;;;;24.73;15.90;;;20.70;63.30;;;;;;4999904;28;20168;-86
2021/09/09 03:58:27;;;;;;;18.58;13.93;;;20.60;63.30;;;;;;4979165;28;20266;-86
2021/09/09 04:00:53;;;;;;;24.80;16.50;;;20.60;63.50;;;;;;4979186;28;20233;-86
2021/09/09 04:03:18;;;;;;;22.37;15.90;;;20.50;63.90;;;;;;4978032;28;20199;-86
2021/09/09 04:05:45;;;;;;;25.50;15.53;;;20.50;63.90;;;;;;4979267;28;20210;-86
2021/09/09 04:08:11;;;;;;;21.77;15.10;;;20.60;63.80;;;;;;4995865;28;20171;-86
2021/09/09 04:10:37;;;;;;;18.47;14.93;;;20.50;64.10;;;;;;4978272;28;20663;-86
2021/09/09 04:13:03;;;;;;;18.40;14.43;;;20.40;64.10;;;;;;4977834;28;20203;-87
2021/09/09 04:15:28;;;;;;;19.95;14.77;;;20.50;64.40;;;;;;4995913;28;20178;-86
2021/09/09 04:17:54;;;;;;;21.17;13.83;;;20.50;64.20;;;;;;4979335;28;20191;-86
2021/09/09 04:20:20;;;;;;;20.53;14.93;;;20.60;64.20;;;;;;4979115;28;20215;-86
2021/09/09 04:22:45;;;;;;;20.70;14.67;;;20.40;64.20;;;;;;4996036;28;20203;-85
2021/09/09 04:25:11;;;;;;;25.40;15.07;;;20.40;64.40;;;;;;4966186;28;20242;-85
2021/09/09 04:27:38;;;;;;;19.23;15.90;;;20.50;64.20;;;;;;4976384;28;20506;-86
2021/09/09 04:30:05;;;;;;;19.40;14.60;;;20.40;64.20;;;;;;4959539;28;20467;-87
2021/09/09 04:32:30;;;;;;;22.80;15.88;;;20.30;64.60;;;;;;4958108;28;20690;-87
2021/09/09 04:34:56;;;;;;;20.53;14.80;;;20.40;64.60;;;;;;4959046;28;20180;-86
2021/09/09 04:37:22;;;;;;;21.73;15.17;;;20.40;64.30;;;;;;4958854;28;20180;-86
2021/09/09 04:39:49;;;;;;;18.80;14.10;;;20.40;64.30;;;;;;4958482;28;21014;-86
2021/09/09 04:42:17;;;;;;;20.25;14.85;;;20.30;64.50;;;;;;4977818;28;20511;-86
2021/09/09 04:44:42;;;;;;;18.10;13.20;;;20.30;64.70;;;;;;4946032;28;20188;-84
2021/09/09 04:47:08;;;;;;;20.50;15.60;;;20.30;64.90;;;;;;4965514;28;20180;-84
2021/09/09 04:49:34;;;;;;;19.93;15.77;;;20.20;64.90;;;;;;4966715;28;20214;-84
2021/09/09 04:52:00;;;;;;;18.83;14.67;;;20.30;64.90;;;;;;4965099;28;20172;-85
2021/09/09 04:54:26;;;;;;;21.90;15.10;;;20.30;65.20;;;;;;4969389;28;20187;-85
2021/09/09 04:56:51;;;;;;;17.73;14.37;;;20.40;65.10;;;;;;4968058;28;20919;-85
2021/09/09 04:59:17;;;;;;;22.20;16.00;;;20.30;65.30;;;;;;4983967;28;20176;-85
2021/09/09 05:01:43;;;;;;;19.63;15.67;;;20.30;65.40;;;;;;4949856;28;20674;-85
2021/09/09 05:04:08;;;;;;;20.60;15.87;;;20.30;65.20;;;;;;4984038;28;20199;-85
2021/09/09 05:06:34;;;;;;;22.40;16.20;;;20.10;65.20;;;;;;4972477;28;20195;-85
2021/09/09 05:09:00;;;;;;;20.20;14.20;;;20.20;65.40;;;;;;4976690;28;20200;-85
2021/09/09 05:11:25;;;;;;;20.73;15.67;;;20.20;65.10;;;;;;4985447;28;20625;-85
2021/09/09 05:13:51;;;;;;;21.67;16.50;;;20.20;65.40;;;;;;4964982;28;20210;-85
2021/09/09 05:16:20;;;;;;;21.63;16.33;;;20.20;65.30;;;;;;4965389;28;20180;-85
2021/09/09 05:18:46;;;;;;;19.80;14.45;;;20.40;65.00;;;;;;4965168;28;20434;-85
2021/09/09 05:21:11;;;;;;;18.50;14.87;;;20.30;65.00;;;;;;4965997;28;20557;-86
2021/09/09 05:23:37;;;;;;;19.43;16.00;;;20.30;65.60;;;;;;4966323;28;20315;-85
2021/09/09 05:26:04;;;;;;;21.63;14.87;;;20.30;65.60;;;;;;4985737;28;20559;-85
2021/09/09 05:28:30;;;;;;;22.50;14.25;;;20.30;65.40;;;;;;4987548;28;20175;-84
2021/09/09 05:30:55;;;;;;;21.20;15.10;;;20.40;65.40;;;;;;4988911;28;20213;-85
2021/09/09 05:33:21;;;;;;;18.50;14.67;;;20.30;65.40;;;;;;4983882;28;20215;-83
2021/09/09 05:35:47;;;;;;;28.87;15.20;;;20.40;65.00;;;;;;4982566;28;20175;-81
2021/09/09 05:38:13;;;;;;;24.83;16.07;;;20.20;65.20;;;;;;4981418;28;20533;-82
2021/09/09 05:40:39;;;;;;;20.00;14.57;;;20.30;65.40;;;;;;4998537;28;20776;-82
2021/09/09 05:43:05;;;;;;;19.47;15.03;;;20.40;65.20;;;;;;4997929;28;20264;-82
2021/09/09 05:45:31;;;;;;;18.20;13.30;;;20.50;65.20;;;;;;4982810;28;20293;-82
2021/09/09 05:48:03;;;;;;;20.48;13.98;;;20.40;65.20;;;;;;4982328;28;20273;-81
2021/09/09 05:50:29;;;;;;;21.55;13.70;;;20.60;65.20;;;;;;4981607;28;20741;-82
2021/09/09 05:52:55;;;;;;;16.10;13.17;;;21.00;64.90;;;;;;4977476;28;20207;-81
2021/09/09 05:55:21;;;;;;;18.40;11.70;;;21.50;63.50;;;;;;4980354;28;20399;-81
2021/09/09 05:57:47;;;;;;;23.17;13.23;;;21.90;62.40;;;;;;4980839;28;20407;-80
2021/09/09 06:00:16;;;;;;;16.07;11.37;;;22.30;61.50;;;;;;4962487;28;20251;-81
2021/09/09 06:02:45;;;;;;;15.03;12.20;;;22.80;60.40;;;;;;4961777;28;20859;-80
2021/09/09 06:05:15;;;;;;;15.10;11.87;;;23.10;60.20;;;;;;4980524;28;20411;-81
2021/09/09 06:07:41;;;;;;;14.87;10.40;;;23.60;59.10;;;;;;4962831;28;20517;-81
2021/09/09 06:10:09;;;;;;;16.00;11.27;;;24.00;58.00;;;;;;4982735;28;20455;-81
2021/09/09 06:12:35;;;;;;;14.00;10.30;;;24.20;57.20;;;;;;4984935;28;20433;-81
2021/09/09 06:15:02;;;;;;;15.13;10.90;;;24.40;56.80;;;;;;4984885;28;20419;-81
2021/09/09 06:17:28;;;;;;;15.20;11.53;;;24.60;56.10;;;;;;4985597;28;20407;-83
2021/09/09 06:19:54;;;;;;;14.93;10.07;;;24.80;55.70;;;;;;4969000;28;20423;-82
2021/09/09 06:22:20;;;;;;;15.03;10.80;;;24.80;55.90;;;;;;4968484;28;20203;-82
2021/09/09 06:24:45;;;;;;;22.33;11.50;;;24.90;56.10;;;;;;5001185;28;20185;-81
2021/09/09 06:27:11;;;;;;;20.20;12.00;;;25.10;55.80;;;;;;4983915;28;20176;-81
2021/09/09 06:29:37;;;;;;;12.90;11.10;;;25.30;55.30;;;;;;4994946;28;20202;-83
2021/09/09 06:32:03;;;;;;;17.17;11.87;;;25.60;54.80;;;;;;4999623;28;20422;-81
2021/09/09 06:34:31;;;;;;;14.37;11.67;;;25.80;54.00;;;;;;4977706;28;20249;-82
2021/09/09 06:36:57;;;;;;;15.93;10.97;;;25.90;53.60;;;;;;4974922;28;20430;-81
2021/09/09 06:39:22;;;;;;;20.73;10.50;;;25.90;53.90;;;;;;4959530;28;20482;-81
2021/09/09 06:41:48;;;;;;;21.43;11.57;;;25.60;54.70;;;;;;4996825;28;20187;-82
2021/09/09 06:44:15;;;;;;;14.70;11.77;;;25.40;55.30;;;;;;4978425;28;20199;-82
2021/09/09 06:46:42;;;;;;;20.53;12.20;;;25.40;55.70;;;;;;4974957;28;20547;-82
2021/09/09 06:49:09;;;;;;;17.40;11.70;;;25.30;56.20;;;;;;4976626;28;20467;-82
2021/09/09 06:51:35;;;;;;;14.00;10.50;;;25.20;56.60;;;;;;4976522;28;20422;-82
2021/09/09 06:54:01;;;;;;;20.57;11.30;;;25.00;57.20;;;;;;4976258;28;20439;-81
2021/09/09 06:56:27;;;;;;;14.37;10.80;;;25.00;57.60;;;;;;4991944;28;20427;-83
2021/09/09 06:58:53;;;;;;;18.27;11.83;;;25.10;57.90;;;;;;4975296;28;20427;-82
2021/09/09 07:01:19;;;;;;;16.07;12.30;;;24.80;58.50;;;;;;4974405;28;20191;-82
2021/09/09 07:03:44;;;;;;;15.50;10.80;;;24.60;59.20;;;;;;4993363;28;20444;-81
2021/09/09 07:06:11;;;;;;;14.77;10.13;;;24.60;59.80;;;;;;4976995;28;20271;-81
2021/09/09 07:08:37;;;;;;;18.43;11.80;;;24.50;59.90;;;;;;4993320;28;20171;-82
2021/09/09 07:11:03;;;;;;;12.93;10.57;;;24.60;59.90;;;;;;4976879;28;20466;-81
2021/09/09 07:13:29;;;;;;;12.87;10.20;;;24.50;60.20;;;;;;4991502;28;20843;-82
2021/09/09 07:15:59;;;;;;;22.93;13.30;;;24.50;60.60;;;;;;4991552;28;20423;-81
2021/09/09 07:18:26;;;;;;;15.27;10.67;;;24.40;60.80;;;;;;4976492;28;20499;-82
2021/09/09 07:20:53;;;;;;;25.17;12.70;;;24.50;60.80;;;;;;4979120;28;20419;-81
2021/09/09 07:23:19;;;;;;;19.23;11.87;;;24.50;60.90;;;;;;4999197;28;20531;-82
2021/09/09 07:25:45;;;;;;;18.20;11.47;;;24.60;60.80;;;;;;4999002;28;20486;-81
2021/09/09 07:28:11;;;;;;;20.57;11.77;;;24.80;60.60;;;;;;4975031;28;20490;-81
2021/09/09 07:30:37;;;;;;;24.10;11.80;;;24.80;60.30;;;;;;4966699;28;20574;-82
2021/09/09 07:33:03;;;;;;;13.57;11.03;;;24.50;60.70;;;;;;4963126;28;20455;-82
2021/09/09 07:35:30;;;;;;;17.53;11.83;;;24.60;60.90;;;;;;4981667;28;20431;-82
2021/09/09 07:37:55;;;;;;;18.33;11.03;;;24.60;61.80;;;;;;4963891;28;20423;-82
2021/09/09 07:40:21;;;;;;;23.63;11.40;;;24.50;61.00;;;;;;4981436;28;20832;-82
2021/09/09 07:42:47;;;;;;;19.70;11.40;;;24.50;61.10;;;;;;4981398;28;20204;-82
2021/09/09 07:45:13;;;;;;;18.40;10.47;;;24.40;61.30;;;;;;4963529;28;20431;-82
2021/09/09 07:47:39;;;;;;;18.87;11.20;;;24.40;61.50;;;;;;4981606;28;20442;-82
2021/09/09 07:50:08;;;;;;;16.00;12.00;;;24.50;61.30;;;;;;4980653;28;20458;-82
2021/09/09 07:52:34;;;;;;;18.00;11.77;;;24.60;61.20;;;;;;4963596;28;20674;-82
2021/09/09 07:55:00;;;;;;;28.73;15.10;;;24.60;61.20;;;;;;4981443;28;20481;-83
2021/09/09 07:57:26;;;;;;;14.60;10.70;;;24.70;61.30;;;;;;4963837;28;20427;-82
2021/09/09 07:59:52;;;;;;;17.33;12.53;;;24.70;61.40;;;;;;4965146;28;20180;-81
2021/09/09 08:02:18;;;;;;;16.10;12.27;;;24.60;61.30;;;;;;4980713;28;20290;-83
2021/09/09 08:04:43;;;;;;;19.73;13.03;;;24.40;61.90;;;;;;4981216;28;20419;-82
2021/09/09 08:07:09;;;;;;;19.17;12.37;;;24.20;62.30;;;;;;4963766;28;20246;-82
2021/09/09 08:09:35;;;;;;;19.00;13.93;;;24.30;62.40;;;;;;4981647;28;20211;-82
2021/09/09 08:12:02;;;;;;;17.47;12.40;;;24.40;62.40;;;;;;4963349;28;20180;-83
2021/09/09 08:14:28;;;;;;;18.00;12.67;;;24.50;62.40;;;;;;4980440;28;20431;-82
2021/09/09 08:16:54;;;;;;;15.83;12.60;;;24.40;62.60;;;;;;4980606;28;20491;-82
2021/09/09 08:19:20;;;;;;;19.23;13.87;;;24.20;62.90;;;;;;4963271;28;20443;-82
2021/09/09 08:21:45;;;;;;;22.77;12.70;;;24.00;63.20;;;;;;4962755;28;20184;-82
2021/09/09 08:24:11;;;;;;;15.40;11.60;;;24.10;63.40;;;;;;4963778;28;20227;-82
2021/09/09 08:26:37;;;;;;;17.07;12.13;;;24.10;63.60;;;;;;4963669;28;20183;-82
2021/09/09 08:29:03;;;;;;;20.80;13.10;;;24.10;64.50;;;;;;4963011;28;20242;-82
2021/09/09 08:31:29;;;;;;;15.77;11.70;;;24.10;63.70;;;;;;4962514;28;20181;-82
2021/09/09 08:33:56;;;;;;;15.20;11.57;;;24.10;63.80;;;;;;4962714;28;20462;-82
2021/09/09 08:36:22;;;;;;;17.33;12.87;;;24.10;63.80;;;;;;4962443;28;20419;-82
2021/09/09 08:38:49;;;;;;;25.40;14.03;;;24.00;64.10;;;;;;4963295;28;20415;-82
2021/09/09 08:41:15;;;;;;;13.97;10.80;;;23.90;64.40;;;;;;4962515;28;20426;-83
2021/09/09 08:43:41;;;;;;;12.20;10.70;;;23.80;64.70;;;;;;4963685;28;20443;-82
2021/09/09 08:46:11;;;;;;;15.23;10.47;;;23.90;64.80;;;;;;4963011;28;20419;-82
2021/09/09 08:48:42;;;;;;;18.43;11.60;;;23.90;64.70;;;;;;4963082;28;20423;-82
2021/09/09 08:51:08;;;;;;;13.50;10.37;;;23.90;64.60;;;;;;4962824;28;20539;-83
2021/09/09 08:53:34;;;;;;;11.60;9.80;;;24.00;64.80;;;;;;4962899;28;20485;-82
2021/09/09 08:56:00;;;;;;;18.40;10.87;;;24.10;65.00;;;;;;4963855;28;20435;-82
2021/09/09 08:58:26;;;;;;;15.10;10.47;;;24.20;64.70;;;;;;4963109;28;20423;-82
2021/09/09 09:01:19;;;;;;;15.80;10.60;;;24.20;64.40;;;;;;4980175;28;20288;-81
2021/09/09 09:03:45;;;;;;;13.80;10.27;;;24.30;64.60;;;;;;4963061;28;20701;-82
2021/09/09 09:06:25;;;;;;;12.50;10.23;;;24.20;64.30;;;;;;4980307;28;20419;-82
2021/09/09 09:09:00;;;;;;;11.63;9.60;;;24.10;64.20;;;;;;4980965;28;20183;-82
2021/09/09 09:11:34;;;;;;;10.63;9.37;;;24.10;64.50;;;;;;4962833;28;20414;-83
2021/09/09 09:14:03;;;;;;;14.70;10.87;;;24.20;64.50;;;;;;4963438;28;20434;-82
2021/09/09 09:16:29;;;;;;;12.70;9.40;;;24.20;64.20;;;;;;4962148;28;20481;-81
2021/09/09 09:19:01;;;;;;;23.33;11.60;;;24.10;64.70;;;;;;4962151;28;20502;-81
2021/09/09 09:21:30;;;;;;;15.37;10.57;;;24.10;64.90;;;;;;4961603;28;20438;-81
2021/09/09 09:23:59;;;;;;;13.10;11.50;;;24.10;65.30;;;;;;4964104;28;20439;-81
2021/09/09 09:26:25;;;;;;;17.80;10.30;;;24.20;65.30;;;;;;4981459;28;20430;-81
2021/09/09 09:28:53;;;;;;;20.23;11.33;;;24.40;65.20;;;;;;4981794;28;20489;-81
2021/09/09 09:31:23;;;;;;;12.40;9.73;;;24.50;64.90;;;;;;4999251;28;20420;-81
2021/09/09 09:33:56;;;;;;;11.17;9.83;;;24.70;64.30;;;;;;4981723;28;20458;-81
2021/09/09 09:36:29;;;;;;;12.77;9.77;;;24.80;63.80;;;;;;5001386;28;20403;-81
2021/09/09 09:39:05;;;;;;;12.20;9.07;;;24.90;63.70;;;;;;4983807;28;20465;-82
2021/09/09 09:41:31;;;;;;;20.93;9.90;;;24.90;63.60;;;;;;4998588;28;20416;-82
2021/09/09 09:44:00;;;;;;;13.20;9.00;;;25.10;63.70;;;;;;4985147;28;20446;-81
2021/09/09 09:46:36;;;;;;;13.20;9.07;;;25.20;62.90;;;;;;4986705;28;20266;-81
2021/09/09 09:49:25;;;;;;;11.50;8.20;;;25.20;62.70;;;;;;5004644;28;20390;-81
2021/09/09 09:51:54;;;;;;;11.47;9.13;;;25.30;62.30;;;;;;4985781;28;20418;-81
2021/09/09 09:54:21;;;;;;;16.03;8.53;;;25.60;61.60;;;;;;4994988;28;20413;-82
2021/09/09 09:56:48;;;;;;;12.07;8.47;;;25.70;60.60;;;;;;5009157;28;20426;-82
2021/09/09 09:59:15;;;;;;;13.40;8.13;;;25.70;60.40;;;;;;4995060;28;20487;-81
2021/09/09 10:01:41;;;;;;;13.00;8.90;;;25.50;60.70;;;;;;4968314;28;20434;-81
2021/09/09 10:04:09;;;;;;;10.00;7.63;;;25.70;61.50;;;;;;4991434;28;20442;-80
2021/09/09 10:06:35;;;;;;;10.37;7.80;;;25.90;59.80;;;;;;4966360;28;20424;-81
2021/09/09 10:09:04;;;;;;;14.17;9.30;;;25.90;59.30;;;;;;4982992;28;20871;-81
2021/09/09 10:11:31;;;;;;;14.47;9.20;;;25.80;59.40;;;;;;4965912;28;20424;-81
2021/09/09 10:13:59;;;;;;;12.27;7.53;;;25.70;59.80;;;;;;4966474;28;20440;-80
2021/09/09 10:16:28;;;;;;;8.70;6.80;;;25.70;59.70;;;;;;4966014;28;20458;-80
2021/09/09 10:18:54;;;;;;;10.27;8.87;;;25.60;59.90;;;;;;4982540;28;20461;-81
2021/09/09 10:22:02;;;;;;;11.07;7.90;;;25.60;60.00;;;;;;4983496;28;20614;-82
2021/09/09 10:24:29;;;;;;;12.17;7.60;;;25.60;60.60;;;;;;4960520;28;20469;-82
2021/09/09 10:27:19;;;;;;;8.23;7.40;;;25.90;60.20;;;;;;5002548;28;20469;-82
2021/09/09 10:30:04;;;;;;;23.67;8.70;;;26.20;60.20;;;;;;5002253;28;21109;-81
2021/09/09 10:32:33;;;;;;;9.13;6.83;;;26.30;59.40;;;;;;5001838;28;20463;-82
2021/09/09 10:35:22;;;;;;;13.83;9.40;;;26.60;58.60;;;;;;5003563;28;20419;-82
2021/09/09 10:37:53;;;;;;;9.60;8.10;;;26.80;57.80;;;;;;4985395;28;20510;-82
2021/09/09 10:40:30;;;;;;;9.70;8.43;;;26.90;57.40;;;;;;4984228;28;20422;-82
2021/09/09 10:43:06;;;;;;;14.70;9.67;;;26.90;57.30;;;;;;5001366;28;20798;-81
2021/09/09 10:45:35;;;;;;;11.13;9.83;;;26.80;56.80;;;;;;5002264;28;20544;-83
2021/09/09 10:48:18;;;;;;;20.87;10.00;;;27.00;57.20;;;;;;4984315;28;20564;-82
2021/09/09 10:51:11;;;;;;;9.77;8.80;;;27.00;57.20;;;;;;4984535;28;20592;-82
2021/09/09 10:53:42;;;;;;;10.07;8.27;;;27.10;57.40;;;;;;4984157;28;20445;-82
2021/09/09 10:56:14;;;;;;;9.90;8.93;;;27.10;57.40;;;;;;4983998;28;20422;-82
2021/09/09 10:58:40;;;;;;;13.63;8.53;;;27.30;57.10;;;;;;4984767;28;20414;-82
2021/09/09 11:01:07;;;;;;;13.63;7.23;;;27.50;56.10;;;;;;4984950;28;20418;-83
2021/09/09 11:03:45;;;;;;;10.67;7.43;;;27.60;56.10;;;;;;4984249;28;20504;-82
2021/09/09 11:06:21;;;;;;;12.00;8.10;;;27.70;56.70;;;;;;4984921;28;20794;-83
2021/09/09 11:09:00;;;;;;;12.70;8.20;;;27.50;55.80;;;;;;4983341;28;20878;-82
2021/09/09 11:11:28;;;;;;;13.87;8.90;;;27.50;56.00;;;;;;4965683;28;20415;-83
2021/09/09 11:13:59;;;;;;;12.07;9.13;;;27.50;56.20;;;;;;4971482;28;20497;-83
2021/09/09 11:16:29;;;;;;;11.67;7.80;;;27.50;56.00;;;;;;4988567;28;20400;-82
2021/09/09 11:18:55;;;;;;;14.33;9.10;;;27.30;56.30;;;;;;4967824;28;20410;-82
2021/09/09 11:21:35;;;;;;;8.50;7.43;;;27.30;56.90;;;;;;4966529;28;20414;-82
2021/09/09 11:24:11;;;;;;;10.83;8.77;;;27.30;57.00;;;;;;4976234;28;20506;-83
2021/09/09 11:26:38;;;;;;;11.37;8.53;;;27.30;57.00;;;;;;5011012;28;20456;-82
2021/09/09 11:29:08;;;;;;;8.40;7.40;;;27.40;57.00;;;;;;4985321;28;20446;-82
2021/09/09 11:31:50;;;;;;;10.63;7.37;;;27.40;56.50;;;;;;4984723;28;20431;-82
2021/09/09 11:34:30;;;;;;;8.73;7.70;;;27.10;56.40;;;;;;5002179;28;20434;-83
2021/09/09 11:37:00;;;;;;;10.90;6.87;;;27.30;56.60;;;;;;4983762;28;20788;-82
2021/09/09 11:39:33;;;;;;;10.00;6.90;;;27.50;56.20;;;;;;4983766;28;20422;-82
2021/09/09 11:42:00;;;;;;;14.03;7.20;;;27.50;56.10;;;;;;4999889;28;20405;-82
2021/09/09 11:44:29;;;;;;;7.80;7.00;;;27.40;55.50;;;;;;5000550;28;20422;-82
2021/09/09 11:47:00;;;;;;;7.20;6.60;;;27.50;54.90;;;;;;5000954;28;20438;-82
2021/09/09 11:49:30;;;;;;;11.23;6.10;;;27.50;54.90;;;;;;5000669;28;20524;-83
2021/09/09 11:51:58;;;;;;;10.13;5.70;;;27.30;55.40;;;;;;4982983;28;20429;-83
2021/09/09 11:54:28;;;;;;;8.83;7.40;;;27.50;55.40;;;;;;4978472;28;20458;-82
2021/09/09 11:57:18;;;;;;;8.50;5.73;;;27.60;55.10;;;;;;4945140;29;20419;-83
2021/09/09 11:59:52;;;;;;;22.17;8.63;;;27.70;54.70;;;;;;4948457;28;20524;-82
2021/09/09 12:02:22;;;;;;;9.03;7.07;;;27.70;54.30;;;;;;4980562;28;20514;-83
2021/09/09 12:04:49;;;;;;;8.27;6.40;;;27.70;54.20;;;;;;4965600;28;20504;-82
2021/09/09 12:07:20;;;;;;;8.00;6.70;;;27.60;54.90;;;;;;4963821;28;20427;-82
2021/09/09 12:09:56;;;;;;;51.67;10.97;;;27.60;55.00;;;;;;4982714;28;20943;-83
2021/09/09 12:12:23;;;;;;;6.60;5.90;;;27.70;55.30;;;;;;4952368;28;20478;-82
2021/09/09 12:15:05;;;;;;;10.70;6.10;;;27.60;54.30;;;;;;4986983;28;20423;-83
2021/09/09 12:17:31;;;;;;;6.60;5.60;;;27.70;53.80;;;;;;4978101;28;20452;-82
2021/09/09 12:20:06;;;;;;;10.53;5.47;;;27.90;53.30;;;;;;4992023;28;20481;-82
2021/09/09 12:22:50;;;;;;;7.03;5.60;;;28.10;53.80;;;;;;5018243;28;20461;-82
2021/09/09 12:25:18;;;;;;;8.30;5.77;;;28.20;53.60;;;;;;4988729;28;20431;-82
2021/09/09 12:27:57;;;;;;;6.87;4.77;;;28.30;52.90;;;;;;4982523;28;20450;-82
2021/09/09 12:30:28;;;;;;;59.97;9.50;;;28.30;52.60;;;;;;4999582;28;20486;-82
2021/09/09 12:32:54;;;;;;;17.30;6.60;;;28.40;52.40;;;;;;4982132;28;20451;-82
2021/09/09 12:35:24;;;;;;;8.20;4.50;;;28.70;51.30;;;;;;4998906;28;20427;-81